Time;durP1;ratioP1;P1;durP2;ratioP2;P2;SDS_P1;SDS_P2;PMS_P1;PMS_P2;Temp;Humidity;BMP_temperature;BMP_pressure;BME280_temperature;BME280_humidity;BME280_pressure;Samples;Min_cycle;Max_cycle;Signal;HPM_P1;HPM_P2
2023/05/15 00:00:39;;;;;;;14.15;10.15;;;27.30;99.90;;;;;;1912860;73;21143;-88
2023/05/15 00:03:14;;;;;;;17.23;9.88;;;27.30;99.90;;;;;;1909446;73;21179;-87
2023/05/15 00:05:48;;;;;;;17.67;11.80;;;27.30;99.90;;;;;;1900806;74;21123;-87
2023/05/15 00:08:19;;;;;;;16.65;11.40;;;27.30;99.90;;;;;;1902641;73;21100;-88
2023/05/15 00:10:50;;;;;;;14.90;10.93;;;27.30;99.90;;;;;;1901789;73;22191;-88
2023/05/15 00:13:33;;;;;;;14.65;11.22;;;27.40;99.90;;;;;;1908983;73;21092;-87
2023/05/15 00:16:10;;;;;;;17.92;11.20;;;27.30;99.90;;;;;;1900890;73;21138;-89
2023/05/15 00:18:41;;;;;;;13.22;11.30;;;27.30;99.90;;;;;;1895186;73;21553;-87
2023/05/15 00:21:16;;;;;;;15.70;12.03;;;27.30;99.90;;;;;;1896747;73;21796;-87
2023/05/15 00:23:53;;;;;;;16.40;11.63;;;27.30;99.90;;;;;;1902819;73;21713;-88
2023/05/15 00:26:22;;;;;;;17.45;11.18;;;27.30;99.90;;;;;;1906468;73;21197;-88
2023/05/15 00:28:54;;;;;;;15.60;10.65;;;27.30;99.90;;;;;;1898416;74;21183;-88
2023/05/15 00:31:27;;;;;;;15.20;12.13;;;27.30;99.90;;;;;;1897294;73;21104;-87
2023/05/15 00:33:59;;;;;;;16.05;10.93;;;27.40;99.90;;;;;;1895625;73;21823;-88
2023/05/15 00:36:32;;;;;;;15.60;10.98;;;27.40;99.90;;;;;;1908727;73;21127;-87
2023/05/15 00:39:07;;;;;;;17.02;11.10;;;27.40;99.90;;;;;;1898263;73;21115;-89
2023/05/15 00:41:38;;;;;;;15.03;10.43;;;27.40;99.90;;;;;;1903775;73;21220;-87
2023/05/15 00:44:11;;;;;;;17.35;10.90;;;27.50;99.90;;;;;;1906856;75;21077;-89
2023/05/15 00:46:44;;;;;;;17.90;10.65;;;27.50;99.90;;;;;;1907524;74;21131;-88
2023/05/15 00:49:15;;;;;;;23.65;12.90;;;27.50;99.90;;;;;;1894002;74;21845;-86
2023/05/15 00:51:45;;;;;;;19.10;11.80;;;;;;;;;;1904304;73;21271;-78
2023/05/15 00:54:17;;;;;;;21.50;11.03;;;;;;;;;;1886960;73;21192;-77
2023/05/15 00:56:49;;;;;;;16.02;11.78;;;;;;;;;;1881245;74;21080;-78
2023/05/15 00:59:25;;;;;;;16.70;11.18;;;;;;;;;;1905424;73;21107;-80
2023/05/15 01:01:58;;;;;;;52.83;13.60;;;;;;;;;;1896995;73;21163;-77
2023/05/15 01:04:29;;;;;;;19.45;13.03;;;;;;;;;;1913924;73;21205;-79
2023/05/15 01:07:02;;;;;;;20.10;12.33;;;;;;;;;;1931266;73;21934;-79
2023/05/15 01:09:33;;;;;;;13.75;11.95;;;;;;;;;;1919301;73;21073;-76
2023/05/15 01:12:05;;;;;;;20.55;12.13;;;;;;;;;;1918027;73;21068;-78
2023/05/15 01:14:35;;;;;;;16.20;11.57;;;;;;;;;;1927671;73;21609;-79
2023/05/15 01:17:05;;;;;;;14.13;11.00;;;;;;;;;;1914909;73;21115;-79
2023/05/15 01:19:35;;;;;;;21.82;12.25;;;;;;;;;;1923543;73;21130;-78
2023/05/15 01:22:07;;;;;;;15.80;10.93;;;;;;;;;;1925524;73;21144;-77
2023/05/15 01:24:58;;;;;;;19.52;12.47;;;;;;;;;;1915946;73;21151;-73
2023/05/15 01:27:41;;;;;;;16.57;11.57;;;;;;;;;;1893890;74;21781;-79
2023/05/15 01:30:29;;;;;;;19.48;11.65;;;;;;;;;;1883324;74;21603;-76
2023/05/15 01:33:17;;;;;;;16.93;11.00;;;;;;;;;;1879323;76;21201;-75
2023/05/15 01:35:48;;;;;;;22.80;12.15;;;;;;;;;;1890977;74;21151;-76
2023/05/15 01:38:29;;;;;;;19.85;13.40;;;;;;;;;;1868862;75;21138;-76
2023/05/15 01:41:01;;;;;;;18.82;12.33;;;;;;;;;;1846009;76;21614;-73
2023/05/15 01:43:36;;;;;;;17.35;11.90;;;;;;;;;;1883206;74;21585;-75
2023/05/15 01:46:12;;;;;;;16.42;11.65;;;;;;;;;;1884424;74;21143;-76
2023/05/15 01:49:00;;;;;;;20.52;12.90;;;;;;;;;;1883205;74;21094;-74
2023/05/15 01:51:31;;;;;;;17.75;12.90;;;;;;;;;;1888709;75;21160;-75
2023/05/15 01:54:02;;;;;;;16.57;11.50;;;;;;;;;;1883773;75;21164;-77
2023/05/15 01:56:34;;;;;;;24.85;11.80;;;;;;;;;;1870651;75;21195;-76
2023/05/15 01:59:05;;;;;;;18.62;11.95;;;;;;;;;;1868633;75;21150;-77
2023/05/15 02:01:36;;;;;;;17.45;11.10;;;;;;;;;;1858526;76;21167;-75
2023/05/15 02:04:06;;;;;;;14.68;12.15;;;;;;;;;;1845031;76;21159;-77
2023/05/15 02:06:37;;;;;;;14.50;11.48;;;;;;;;;;1870890;75;21182;-72
2023/05/15 02:09:08;;;;;;;15.68;12.65;;;;;;;;;;1838315;76;21100;-78
2023/05/15 02:11:38;;;;;;;18.05;12.98;;;;;;;;;;1837130;77;21178;-77
2023/05/15 02:14:09;;;;;;;17.92;12.35;;;;;;;;;;1898911;74;21642;-75
2023/05/15 02:16:39;;;;;;;16.87;12.95;;;;;;;;;;1904059;74;21171;-75
2023/05/15 02:19:09;;;;;;;16.57;12.15;;;;;;;;;;1904982;74;21136;-74
2023/05/15 02:21:40;;;;;;;15.28;12.05;;;;;;;;;;1903114;73;21197;-75
2023/05/15 02:24:11;;;;;;;20.45;13.70;;;;;;;;;;1902989;73;21123;-76
2023/05/15 02:26:46;;;;;;;19.10;14.15;;;;;;;;;;1870237;75;21144;-75
2023/05/15 02:29:17;;;;;;;19.17;14.13;;;;;;;;;;1869698;76;21128;-75
2023/05/15 02:31:48;;;;;;;22.77;13.70;;;;;;;;;;1824610;77;21225;-73
2023/05/15 02:34:26;;;;;;;18.73;13.38;;;;;;;;;;1876906;75;21099;-75
2023/05/15 02:36:57;;;;;;;18.30;13.75;;;;;;;;;;1868615;75;21191;-75
2023/05/15 02:39:29;;;;;;;17.65;13.98;;;;;;;;;;1874366;75;21076;-74
2023/05/15 02:41:59;;;;;;;24.00;13.83;;;;;;;;;;1877861;75;21701;-76
2023/05/15 02:44:30;;;;;;;20.12;13.00;;;;;;;;;;1878731;75;21122;-78
2023/05/15 02:47:01;;;;;;;22.60;13.65;;;;;;;;;;1891527;74;21201;-76
2023/05/15 02:49:31;;;;;;;19.90;14.00;;;;;;;;;;1905507;74;21166;-75
2023/05/15 02:52:02;;;;;;;19.15;13.15;;;;;;;;;;1913405;73;21120;-77
2023/05/15 02:54:32;;;;;;;15.85;12.58;;;;;;;;;;1906529;75;21737;-77
2023/05/15 02:57:07;;;;;;;17.75;13.15;;;;;;;;;;1904399;74;21226;-74
2023/05/15 02:59:35;;;;;;;16.77;12.18;;;;;;;;;;1900478;74;21140;-75
2023/05/15 03:02:08;;;;;;;21.37;13.10;;;;;;;;;;1907305;74;21120;-74
2023/05/15 03:04:39;;;;;;;16.23;12.30;;;;;;;;;;1904960;74;21147;-77
2023/05/15 03:07:09;;;;;;;16.27;12.18;;;;;;;;;;1905596;74;21144;-74
2023/05/15 03:09:40;;;;;;;19.50;12.45;;;;;;;;;;1904203;74;21171;-77
2023/05/15 03:12:11;;;;;;;18.70;12.68;;;;;;;;;;1906678;74;21548;-76
2023/05/15 03:14:41;;;;;;;17.40;12.53;;;;;;;;;;1906283;73;21052;-75
2023/05/15 03:17:11;;;;;;;20.27;13.40;;;;;;;;;;1904686;74;21193;-76
2023/05/15 03:19:42;;;;;;;24.10;14.73;;;;;;;;;;1913371;74;21159;-76
2023/05/15 03:22:12;;;;;;;16.50;12.40;;;;;;;;;;1891654;73;21578;-76
2023/05/15 03:24:42;;;;;;;21.07;12.00;;;;;;;;;;1895232;74;21084;-77
2023/05/15 03:27:13;;;;;;;17.45;11.85;;;;;;;;;;1905106;74;21108;-76
2023/05/15 03:29:43;;;;;;;18.12;12.68;;;;;;;;;;1901463;74;21111;-76
2023/05/15 03:32:14;;;;;;;19.82;12.93;;;;;;;;;;1900129;74;21147;-76
2023/05/15 03:34:45;;;;;;;17.42;13.30;;;;;;;;;;1902215;74;21073;-75
2023/05/15 03:37:16;;;;;;;21.33;13.05;;;;;;;;;;1910166;73;21063;-77
2023/05/15 03:39:46;;;;;;;21.07;12.88;;;;;;;;;;1890730;74;21883;-76
2023/05/15 03:42:23;;;;;;;19.37;13.58;;;;;;;;;;1909151;73;21852;-74
2023/05/15 03:44:48;;;;;;;15.20;12.33;;;;;;;;;;1870072;76;21087;-75
2023/05/15 03:47:19;;;;;;;16.77;13.98;;;;;;;;;;1838981;76;21167;-76
2023/05/15 03:49:49;;;;;;;20.40;12.65;;;;;;;;;;1846480;76;21253;-75
2023/05/15 03:52:19;;;;;;;18.37;12.82;;;;;;;;;;1869498;75;21198;-76
2023/05/15 03:54:53;;;;;;;24.85;13.40;;;;;;;;;;1867069;76;21146;-76
2023/05/15 03:57:23;;;;;;;19.27;13.95;;;;;;;;;;1862669;76;21144;-75
2023/05/15 03:59:53;;;;;;;23.80;14.10;;;;;;;;;;1868132;76;21127;-73
2023/05/15 04:02:23;;;;;;;23.60;13.60;;;;;;;;;;1866292;76;21147;-75
2023/05/15 04:04:54;;;;;;;20.08;14.10;;;;;;;;;;1857706;76;21115;-74
2023/05/15 04:07:25;;;;;;;19.77;13.22;;;;;;;;;;1869270;76;21177;-73
2023/05/15 04:09:55;;;;;;;18.15;13.48;;;;;;;;;;1842792;77;21178;-73
2023/05/15 04:12:28;;;;;;;21.40;12.78;;;;;;;;;;1913463;74;21131;-73
2023/05/15 04:15:01;;;;;;;20.02;12.93;;;;;;;;;;1911492;73;21581;-74
2023/05/15 04:17:30;;;;;;;18.70;13.53;;;;;;;;;;1909500;74;21095;-75
2023/05/15 04:20:01;;;;;;;15.83;12.85;;;;;;;;;;1910816;73;21678;-76
2023/05/15 04:22:31;;;;;;;20.23;12.88;;;;;;;;;;1913799;73;21115;-75
2023/05/15 04:25:01;;;;;;;14.63;11.93;;;;;;;;;;1901592;73;21233;-74
2023/05/15 04:27:32;;;;;;;17.15;13.38;;;;;;;;;;1908248;73;21136;-74
2023/05/15 04:30:02;;;;;;;18.17;13.40;;;;;;;;;;1909561;73;21185;-75
2023/05/15 04:32:33;;;;;;;18.30;12.73;;;;;;;;;;1911342;73;21080;-74
2023/05/15 04:35:10;;;;;;;18.20;12.93;;;;;;;;;;1912496;74;21127;-73
2023/05/15 04:37:42;;;;;;;20.80;13.75;;;;;;;;;;1913045;74;21163;-75
2023/05/15 04:40:15;;;;;;;19.73;13.43;;;;;;;;;;1900204;74;21201;-75
2023/05/15 04:42:47;;;;;;;18.02;13.05;;;;;;;;;;1908297;74;21205;-76
2023/05/15 04:45:26;;;;;;;16.48;14.15;;;;;;;;;;1911016;73;21166;-73
2023/05/15 04:47:56;;;;;;;16.23;13.43;;;;;;;;;;1908382;73;21190;-73
2023/05/15 04:50:27;;;;;;;20.65;14.38;;;;;;;;;;1912270;74;21111;-80
2023/05/15 04:52:57;;;;;;;18.05;12.88;;;;;;;;;;1908979;74;21147;-78
2023/05/15 04:55:28;;;;;;;21.65;14.25;;;;;;;;;;1908123;73;21657;-80
2023/05/15 04:57:59;;;;;;;22.25;15.32;;;;;;;;;;1873428;73;22731;-76
2023/05/15 05:00:29;;;;;;;18.10;14.03;;;;;;;;;;1818482;78;21607;-81
2023/05/15 05:03:00;;;;;;;23.27;15.13;;;;;;;;;;1822984;78;21159;-79
2023/05/15 05:05:30;;;;;;;21.82;14.80;;;;;;;;;;1820049;78;21159;-79
2023/05/15 05:08:00;;;;;;;24.43;16.35;;;;;;;;;;1813379;78;21191;-77
2023/05/15 05:10:31;;;;;;;25.08;16.07;;;;;;;;;;1814080;78;21136;-76
2023/05/15 05:13:01;;;;;;;22.35;16.02;;;;;;;;;;1813280;78;21222;-80
2023/05/15 05:15:33;;;;;;;19.65;16.07;;;;;;;;;;1832089;78;21079;-81
2023/05/15 05:18:03;;;;;;;25.10;16.10;;;;;;;;;;1809124;79;21210;-80
2023/05/15 05:20:33;;;;;;;21.23;14.90;;;;;;;;;;1821164;78;21143;-80
2023/05/15 05:23:03;;;;;;;20.20;15.28;;;;;;;;;;1822014;78;21194;-81
2023/05/15 05:25:34;;;;;;;16.42;14.20;;;;;;;;;;1818765;78;21140;-78
2023/05/15 05:28:04;;;;;;;20.97;14.58;;;;;;;;;;1842720;78;21187;-81
2023/05/15 05:30:34;;;;;;;24.05;14.47;;;;;;;;;;1822681;78;21146;-83
2023/05/15 05:33:06;;;;;;;22.20;14.58;;;33.90;93.70;;;;;;1839431;78;21594;-82
2023/05/15 05:35:37;;;;;;;22.70;14.75;;;33.80;94.00;;;;;;1872577;76;21608;-82
2023/05/15 05:38:08;;;;;;;19.42;14.13;;;33.80;95.10;;;;;;1868171;76;21154;-76
2023/05/15 05:40:39;;;;;;;19.95;14.73;;;33.80;93.90;;;;;;1866851;75;21165;-75
2023/05/15 05:43:10;;;;;;;21.17;15.15;;;33.80;94.60;;;;;;1867295;75;21059;-74
2023/05/15 05:45:41;;;;;;;18.15;14.00;;;33.80;94.50;;;;;;1871246;76;21217;-75
2023/05/15 05:48:13;;;;;;;16.42;14.68;;;33.80;93.30;;;;;;1864411;76;21233;-77
2023/05/15 05:50:44;;;;;;;21.25;15.03;;;33.80;93.40;;;;;;1872110;76;21142;-78
2023/05/15 05:53:16;;;;;;;18.85;14.83;;;33.90;93.40;;;;;;1829360;78;21213;-77
2023/05/15 05:55:47;;;;;;;23.02;14.80;;;33.90;93.50;;;;;;1875284;76;21511;-78
2023/05/15 05:58:19;;;;;;;22.75;14.40;;;33.80;93.90;;;;;;1865712;76;21206;-77
2023/05/15 06:00:52;;;;;;;21.87;14.87;;;33.70;94.60;;;;;;1869849;76;21121;-77
2023/05/15 06:03:26;;;;;;;20.82;14.83;;;33.60;93.80;;;;;;1874075;76;21117;-76
2023/05/15 06:06:00;;;;;;;23.10;15.93;;;33.50;94.30;;;;;;1873559;76;21095;-77
2023/05/15 06:08:30;;;;;;;22.35;16.57;;;33.50;94.30;;;;;;1879211;76;21145;-79
2023/05/15 06:11:02;;;;;;;18.00;15.50;;;33.50;93.60;;;;;;1871085;76;21153;-78
2023/05/15 06:13:32;;;;;;;20.70;14.80;;;33.50;93.50;;;;;;1876820;75;21282;-78
2023/05/15 06:16:05;;;;;;;20.32;15.38;;;33.60;93.30;;;;;;1874288;76;21357;-76
2023/05/15 06:18:36;;;;;;;22.67;15.18;;;33.60;93.00;;;;;;1868332;75;21194;-76
2023/05/15 06:21:07;;;;;;;21.27;14.95;;;33.70;92.20;;;;;;1876369;75;21241;-77
2023/05/15 06:23:37;;;;;;;20.70;16.05;;;33.80;92.20;;;;;;1873978;75;21099;-75
2023/05/15 06:26:08;;;;;;;22.90;14.20;;;33.80;92.30;;;;;;1875047;75;21145;-75
2023/05/15 06:28:40;;;;;;;20.88;15.35;;;33.80;92.30;;;;;;1867215;75;21150;-76
2023/05/15 06:31:29;;;;;;;20.62;15.03;;;33.90;91.60;;;;;;1873465;75;21126;-76
2023/05/15 06:34:00;;;;;;;24.20;16.02;;;34.00;91.50;;;;;;1871812;76;21087;-77
2023/05/15 06:36:31;;;;;;;19.52;15.58;;;34.10;91.30;;;;;;1874220;75;21056;-79
2023/05/15 06:39:04;;;;;;;19.57;15.20;;;34.10;90.60;;;;;;1873183;75;21220;-79
2023/05/15 06:41:37;;;;;;;20.55;15.68;;;34.20;90.90;;;;;;1873089;76;21972;-78
2023/05/15 06:44:07;;;;;;;25.88;16.17;;;34.20;90.90;;;;;;1873624;75;21075;-77
2023/05/15 06:46:38;;;;;;;25.80;15.93;;;34.20;90.80;;;;;;1862860;76;21122;-76
2023/05/15 06:49:09;;;;;;;17.00;14.63;;;34.20;90.20;;;;;;1866505;75;21075;-78
2023/05/15 06:51:40;;;;;;;20.82;14.40;;;34.30;90.00;;;;;;1870577;75;21134;-78
2023/05/15 06:54:12;;;;;;;18.15;14.28;;;34.30;90.00;;;;;;1874728;75;21111;-78
2023/05/15 06:56:44;;;;;;;19.62;15.93;;;34.20;90.10;;;;;;1874426;75;21370;-79
2023/05/15 06:59:15;;;;;;;23.35;15.98;;;34.20;90.10;;;;;;1880868;75;21146;-79
2023/05/15 07:01:46;;;;;;;17.50;15.38;;;34.20;91.20;;;;;;1861302;75;21154;-76
2023/05/15 07:04:18;;;;;;;19.50;15.23;;;34.20;91.30;;;;;;1860557;75;21130;-78
2023/05/15 07:06:49;;;;;;;20.85;15.40;;;34.20;90.60;;;;;;1866027;76;21135;-77
2023/05/15 07:09:20;;;;;;;25.43;17.12;;;34.20;90.10;;;;;;1857123;76;21115;-77
2023/05/15 07:11:52;;;;;;;22.40;16.07;;;34.20;90.50;;;;;;1833100;76;21150;-76
2023/05/15 07:14:25;;;;;;;23.65;16.40;;;34.20;90.40;;;;;;1853724;76;21478;-80
2023/05/15 07:16:56;;;;;;;19.65;15.68;;;34.20;90.40;;;;;;1862883;76;21100;-76
2023/05/15 07:19:27;;;;;;;23.70;16.67;;;34.20;88.00;;;;;;1863139;75;21297;-76
2023/05/15 07:21:59;;;;;;;32.88;16.50;;;34.20;87.60;;;;;;1855508;76;21150;-76
2023/05/15 07:24:31;;;;;;;28.32;16.40;;;34.30;87.80;;;;;;1795510;78;21116;-77
2023/05/15 07:27:03;;;;;;;25.37;17.12;;;34.30;86.60;;;;;;1867231;75;21120;-82
2023/05/15 07:29:34;;;;;;;26.95;17.12;;;34.30;86.50;;;;;;1860937;76;21181;-81
2023/05/15 07:32:26;;;;;;;20.00;16.10;;;34.30;84.90;;;;;;1863906;75;21869;-76
2023/05/15 07:34:57;;;;;;;30.37;17.20;;;34.30;84.10;;;;;;1764609;80;21245;-76
2023/05/15 07:37:28;;;;;;;22.70;16.90;;;34.30;83.00;;;;;;1765309;80;21339;-79
2023/05/15 07:39:59;;;;;;;21.57;16.65;;;34.30;84.20;;;;;;1820249;77;21237;-77
2023/05/15 07:42:31;;;;;;;22.17;17.48;;;34.30;85.00;;;;;;1826992;77;21167;-77
2023/05/15 07:45:05;;;;;;;21.50;16.52;;;34.30;85.70;;;;;;1815586;78;21159;-77
2023/05/15 07:47:36;;;;;;;22.00;15.80;;;34.40;84.00;;;;;;1817603;78;21149;-77
2023/05/15 07:50:12;;;;;;;29.07;15.78;;;34.40;83.80;;;;;;1782357;79;21135;-79
2023/05/15 07:52:45;;;;;;;25.12;17.00;;;34.40;84.40;;;;;;1760430;80;21203;-80
2023/05/15 07:55:16;;;;;;;25.50;15.80;;;34.30;82.70;;;;;;1774536;79;21208;-80
2023/05/15 07:57:50;;;;;;;24.98;16.25;;;34.40;82.90;;;;;;1760407;80;21281;-77
2023/05/15 08:00:25;;;;;;;25.80;15.93;;;34.40;82.50;;;;;;1814892;77;21127;-77
2023/05/15 08:03:03;;;;;;;21.45;17.32;;;34.40;82.80;;;;;;1790520;79;21097;-77
2023/05/15 08:05:37;;;;;;;26.10;16.93;;;34.40;83.00;;;;;;1824158;77;21251;-78
2023/05/15 08:08:05;;;;;;;23.77;17.05;;;34.40;83.00;;;;;;1823280;77;21062;-77
2023/05/15 08:10:36;;;;;;;19.00;16.87;;;34.30;82.40;;;;;;1812771;77;21213;-76
2023/05/15 08:13:11;;;;;;;;;;;34.30;83.10;;;;;;1835005;77;21157;-75
2023/05/15 08:15:43;;;;;;;27.10;17.65;;;34.30;84.40;;;;;;1817218;77;20253;-76
2023/05/15 08:18:14;;;;;;;20.75;16.32;;;34.30;83.00;;;;;;1813843;77;21134;-76
2023/05/15 08:20:47;;;;;;;21.70;17.60;;;34.30;83.80;;;;;;1819648;77;21064;-79
2023/05/15 08:23:23;;;;;;;26.60;16.93;;;34.30;84.00;;;;;;1761594;80;21211;-77
2023/05/15 08:25:51;;;;;;;25.77;17.40;;;34.30;85.70;;;;;;1822295;77;21213;-79
2023/05/15 08:28:26;;;;;;;24.50;16.95;;;34.30;85.70;;;;;;1820751;77;21195;-76
2023/05/15 08:30:54;;;;;;;26.52;16.60;;;34.30;86.70;;;;;;1819082;77;21166;-77
2023/05/15 08:33:29;;;;;;;19.85;14.87;;;34.30;86.00;;;;;;1813503;77;21264;-77
2023/05/15 08:36:00;;;;;;;26.42;17.45;;;34.30;83.90;;;;;;1825056;77;21611;-78
2023/05/15 08:38:31;;;;;;;20.95;15.50;;;34.20;84.10;;;;;;1820261;77;21240;-78
2023/05/15 08:41:15;;;;;;;22.90;16.17;;;34.30;83.40;;;;;;1824545;77;21148;-76
2023/05/15 08:43:53;;;;;;;20.55;17.73;;;34.30;83.70;;;;;;1833676;77;21123;-76
2023/05/15 08:46:28;;;;;;;20.43;16.10;;;34.30;84.60;;;;;;1832094;77;21177;-76
2023/05/15 08:49:01;;;;;;;23.38;16.82;;;34.20;83.60;;;;;;1826160;77;21116;-74
2023/05/15 08:51:32;;;;;;;20.95;16.40;;;34.20;84.40;;;;;;1815392;77;21194;-76
2023/05/15 08:54:04;;;;;;;24.12;17.20;;;34.20;83.10;;;;;;1815454;77;21151;-78
2023/05/15 08:56:37;;;;;;;22.67;16.60;;;34.20;84.70;;;;;;1814874;78;21573;-77
2023/05/15 08:59:09;;;;;;;22.35;16.27;;;34.10;84.60;;;;;;1818473;77;21201;-77
2023/05/15 09:01:42;;;;;;;19.37;15.78;;;34.10;84.40;;;;;;1815480;78;21731;-78
2023/05/15 09:04:13;;;;;;;18.95;16.50;;;34.10;84.50;;;;;;1827167;77;21158;-74
2023/05/15 09:06:46;;;;;;;23.30;17.23;;;34.10;83.30;;;;;;1824132;77;21083;-75
2023/05/15 09:09:17;;;;;;;27.60;17.50;;;34.10;83.30;;;;;;1816385;77;21625;-75
2023/05/15 09:11:50;;;;;;;24.07;16.37;;;34.10;83.20;;;;;;1818477;77;21088;-77
2023/05/15 09:14:21;;;;;;;22.42;16.55;;;34.10;82.90;;;;;;1825608;77;21591;-77
2023/05/15 09:16:53;;;;;;;24.30;16.57;;;34.10;82.50;;;;;;1814537;77;21585;-78
2023/05/15 09:19:26;;;;;;;25.77;17.20;;;34.10;82.70;;;;;;1745813;80;21178;-76
2023/05/15 09:22:00;;;;;;;22.67;17.07;;;34.10;83.40;;;;;;1755712;81;21151;-78
2023/05/15 09:24:35;;;;;;;20.65;15.58;;;34.00;83.20;;;;;;1763276;80;21190;-77
2023/05/15 09:27:10;;;;;;;23.50;16.48;;;34.00;83.50;;;;;;1821845;77;21698;-77
2023/05/15 09:29:41;;;;;;;22.15;18.30;;;34.00;83.90;;;;;;1811911;78;21115;-77
2023/05/15 09:32:14;;;;;;;21.15;16.82;;;33.90;83.70;;;;;;1815243;77;21174;-77
2023/05/15 09:34:48;;;;;;;25.02;16.87;;;33.90;83.90;;;;;;1817728;78;21244;-76
2023/05/15 09:37:33;;;;;;;21.40;16.45;;;33.90;85.90;;;;;;1798482;78;21700;-77
2023/05/15 09:40:14;;;;;;;22.95;17.05;;;33.90;84.40;;;;;;1805787;78;21236;-77
2023/05/15 09:42:49;;;;;;;23.52;16.73;;;33.80;85.20;;;;;;1784220;79;21194;-78
2023/05/15 09:45:25;;;;;;;23.70;17.45;;;33.80;84.60;;;;;;1798805;78;21717;-78
2023/05/15 09:48:03;;;;;;;23.02;16.60;;;33.80;84.60;;;;;;1810484;78;21190;-78
2023/05/15 09:50:39;;;;;;;28.65;17.40;;;33.80;86.30;;;;;;1798433;78;21471;-79
2023/05/15 09:53:14;;;;;;;23.12;15.93;;;33.80;86.80;;;;;;1798950;78;21146;-78
2023/05/15 09:55:47;;;;;;;21.37;17.62;;;33.80;86.10;;;;;;1743717;81;21180;-78
2023/05/15 09:58:20;;;;;;;21.57;16.10;;;33.80;85.80;;;;;;1787068;78;21205;-79
2023/05/15 10:00:51;;;;;;;23.25;17.25;;;33.80;85.60;;;;;;1801343;78;21197;-78
2023/05/15 10:03:23;;;;;;;28.15;16.87;;;33.70;85.80;;;;;;1806379;78;21162;-75
2023/05/15 10:06:03;;;;;;;20.82;16.82;;;33.70;86.00;;;;;;1794571;78;21190;-74
2023/05/15 10:08:35;;;;;;;22.05;16.40;;;33.60;85.80;;;;;;1793936;78;21120;-83
2023/05/15 10:11:09;;;;;;;18.82;16.82;;;33.60;85.40;;;;;;1795037;78;21152;-78
2023/05/15 10:13:40;;;;;;;24.98;18.17;;;33.60;84.80;;;;;;1751430;80;21158;-78
2023/05/15 10:16:12;;;;;;;20.43;17.23;;;33.60;85.40;;;;;;1790594;78;21205;-76
2023/05/15 10:18:44;;;;;;;21.87;17.85;;;33.60;86.10;;;;;;1792537;78;21179;-76
2023/05/15 10:21:17;;;;;;;25.72;17.00;;;33.60;84.30;;;;;;1797396;78;21194;-77
2023/05/15 10:23:50;;;;;;;24.05;17.98;;;33.50;84.20;;;;;;1794020;78;22068;-77
2023/05/15 10:26:26;;;;;;;21.87;17.05;;;33.50;84.80;;;;;;1798494;78;21092;-79
2023/05/15 10:28:57;;;;;;;;;;;33.50;82.00;;;;;;1801784;78;21149;-82
2023/05/15 10:31:30;;;;;;;28.42;16.97;;;33.50;81.70;;;;;;1780872;80;20180;-79
2023/05/15 10:34:01;;;;;;;22.42;16.80;;;33.50;80.70;;;;;;1799979;78;21168;-78
2023/05/15 10:36:36;;;;;;;20.75;17.00;;;33.60;81.30;;;;;;1816777;78;21137;-81
2023/05/15 10:39:08;;;;;;;25.00;17.40;;;33.50;80.90;;;;;;1820909;77;21175;-76
2023/05/15 10:41:40;;;;;;;22.70;17.60;;;33.60;80.80;;;;;;1813547;77;21617;-80
2023/05/15 10:44:11;;;;;;;21.17;17.15;;;33.60;81.20;;;;;;1822308;78;21157;-75
2023/05/15 10:46:42;;;;;;;23.15;16.52;;;33.50;81.50;;;;;;1821535;77;22114;-79
2023/05/15 10:49:13;;;;;;;26.70;18.25;;;33.50;81.30;;;;;;1823080;77;21177;-79
2023/05/15 10:51:44;;;;;;;24.85;18.20;;;33.50;82.00;;;;;;1825213;77;21174;-82
2023/05/15 10:54:15;;;;;;;23.18;17.70;;;33.50;81.00;;;;;;1821347;78;21064;-85
2023/05/15 10:56:46;;;;;;;21.52;17.12;;;33.50;81.60;;;;;;1824675;77;21175;-76
2023/05/15 10:59:18;;;;;;;25.88;17.70;;;33.50;81.70;;;;;;1815301;78;21178;-83
2023/05/15 11:01:49;;;;;;;24.02;16.77;;;33.50;80.90;;;;;;1819279;78;21181;-78
2023/05/15 11:04:25;;;;;;;24.72;16.32;;;33.40;80.60;;;;;;1818750;78;21166;-83
2023/05/15 11:06:57;;;;;;;26.57;16.82;;;33.40;80.90;;;;;;1817596;78;21143;-83
2023/05/15 11:09:36;;;;;;;21.73;17.75;;;33.40;81.00;;;;;;1773206;79;21217;-85
2023/05/15 11:12:10;;;;;;;22.30;17.10;;;33.30;81.10;;;;;;1751282;80;21172;-85
2023/05/15 11:14:44;;;;;;;25.80;18.07;;;33.30;81.40;;;;;;1780176;79;21161;-83
2023/05/15 11:17:16;;;;;;;19.57;16.65;;;33.30;81.10;;;;;;1781088;79;21157;-84
2023/05/15 11:19:57;;;;;;;26.25;18.00;;;33.20;81.60;;;;;;1785623;79;21151;-83
2023/05/15 11:22:38;;;;;;;22.32;17.82;;;33.20;82.10;;;;;;1754885;80;21200;-83
2023/05/15 11:25:11;;;;;;;24.72;17.48;;;33.20;81.50;;;;;;1757105;81;21206;-80
2023/05/15 11:27:44;;;;;;;28.80;17.98;;;33.20;82.40;;;;;;1783074;79;21602;-83
2023/05/15 11:30:23;;;;;;;22.75;19.00;;;33.20;82.60;;;;;;1753167;81;21250;-82
2023/05/15 11:33:00;;;;;;;25.77;19.02;;;33.10;82.60;;;;;;1790969;79;21166;-84
2023/05/15 11:35:42;;;;;;;23.35;19.10;;;33.10;82.80;;;;;;1816459;77;21142;-83
2023/05/15 11:38:21;;;;;;;24.82;19.00;;;33.00;82.90;;;;;;1809227;77;21786;-80
2023/05/15 11:41:01;;;;;;;24.60;19.32;;;33.00;83.70;;;;;;1809899;78;21095;-77
2023/05/15 11:43:33;;;;;;;28.90;20.23;;;33.00;83.80;;;;;;1817136;76;21206;-80
2023/05/15 11:46:07;;;;;;;28.75;19.00;;;33.00;83.60;;;;;;1815998;78;21239;-75
2023/05/15 11:48:42;;;;;;;24.02;18.55;;;33.00;83.90;;;;;;1816221;77;21112;-83
2023/05/15 11:51:28;;;;;;;25.65;19.87;;;32.90;84.40;;;;;;1816300;77;21186;-83
2023/05/15 11:54:00;;;;;;;27.50;19.92;;;32.90;84.50;;;;;;1809531;77;21583;-85
2023/05/15 11:56:31;;;;;;;28.77;20.37;;;32.90;84.40;;;;;;1813508;78;21118;-80
2023/05/15 11:59:02;;;;;;;25.85;20.00;;;32.80;84.40;;;;;;1807185;77;21182;-84
2023/05/15 12:01:42;;;;;;;26.52;20.77;;;32.80;84.60;;;;;;1816265;77;21240;-83
2023/05/15 12:04:15;;;;;;;28.65;21.65;;;32.70;84.80;;;;;;1810794;78;21684;-81
2023/05/15 12:06:48;;;;;;;31.45;21.07;;;32.70;85.20;;;;;;1808999;77;21091;-83
2023/05/15 12:09:21;;;;;;;26.17;20.85;;;32.70;85.00;;;;;;1806846;78;21165;-86
2023/05/15 12:11:55;;;;;;;33.63;23.10;;;32.70;85.30;;;;;;1783166;79;21127;-86
2023/05/15 12:14:30;;;;;;;28.87;23.47;;;32.60;85.00;;;;;;1809787;78;21209;-84
2023/05/15 12:17:04;;;;;;;30.48;25.30;;;32.60;85.50;;;;;;1813727;77;21622;-84
2023/05/15 12:19:37;;;;;;;29.75;24.35;;;32.60;85.50;;;;;;1811716;78;21130;-82
2023/05/15 12:22:08;;;;;;;36.48;27.82;;;32.60;86.50;;;;;;1815860;77;21138;-84
2023/05/15 12:24:40;;;;;;;35.08;28.38;;;32.50;85.30;;;;;;1814180;78;21126;-85
2023/05/15 12:27:11;;;;;;;39.38;27.10;;;32.50;85.50;;;;;;1813460;77;21130;-82
2023/05/15 12:29:43;;;;;;;38.48;26.77;;;32.50;85.80;;;;;;1788728;79;21171;-84
2023/05/15 12:32:15;;;;;;;36.10;26.35;;;32.50;85.80;;;;;;1817523;77;21159;-82
2023/05/15 12:34:47;;;;;;;30.45;24.40;;;32.50;85.90;;;;;;1823692;78;21208;-84
2023/05/15 12:37:22;;;;;;;33.40;24.20;;;32.50;86.40;;;;;;1830432;77;21099;-85
2023/05/15 12:39:55;;;;;;;31.07;24.03;;;32.40;86.30;;;;;;1837545;77;21158;-80
2023/05/15 12:42:26;;;;;;;31.20;23.25;;;32.40;86.70;;;;;;1835821;77;21123;-82
2023/05/15 12:44:57;;;;;;;29.87;22.50;;;32.40;87.10;;;;;;1841535;77;21220;-83
2023/05/15 12:47:28;;;;;;;29.27;23.57;;;32.40;87.20;;;;;;1820012;77;21705;-88
2023/05/15 12:50:00;;;;;;;31.42;24.32;;;32.40;86.80;;;;;;1844176;77;21181;-87
2023/05/15 12:52:32;;;;;;;29.87;24.40;;;32.40;87.30;;;;;;1828292;77;21700;-88
2023/05/15 12:55:03;;;;;;;30.52;23.20;;;32.40;87.20;;;;;;1823303;77;21244;-88
2023/05/15 12:57:34;;;;;;;32.65;25.05;;;32.30;87.80;;;;;;1820560;77;21133;-89
2023/05/15 13:00:08;;;;;;;34.27;23.87;;;32.30;87.70;;;;;;1824556;77;21118;-87
2023/05/15 13:02:39;;;;;;;32.45;24.10;;;32.30;88.10;;;;;;1826915;77;21208;-89
2023/05/15 13:05:10;;;;;;;30.75;23.00;;;32.30;88.20;;;;;;1822208;77;21180;-87
2023/05/15 13:07:44;;;;;;;32.48;23.25;;;32.30;88.20;;;;;;1822201;77;21134;-87
2023/05/15 13:10:15;;;;;;;33.67;24.27;;;32.20;87.90;;;;;;1825164;77;21174;-87
2023/05/15 13:12:47;;;;;;;30.77;24.72;;;32.20;88.10;;;;;;1822941;77;21214;-87
2023/05/15 13:15:41;;;;;;;31.02;23.55;;;32.20;88.10;;;;;;1824337;77;21760;-87
2023/05/15 13:18:14;;;;;;;35.83;23.83;;;32.10;88.40;;;;;;1830739;77;21179;-86
2023/05/15 13:20:53;;;;;;;35.95;24.57;;;32.10;88.80;;;;;;1819873;77;21154;-84
2023/05/15 13:23:25;;;;;;;32.53;24.43;;;32.10;88.70;;;;;;1822033;77;21158;-89
2023/05/15 13:25:56;;;;;;;31.30;23.80;;;32.10;89.30;;;;;;1822407;77;21637;-87
2023/05/15 13:28:27;;;;;;;33.60;24.18;;;32.10;89.60;;;;;;1821422;77;22399;-88
2023/05/15 13:30:58;;;;;;;36.38;24.00;;;32.00;89.50;;;;;;1822006;77;21126;-87